Stockholm, Sweden

3:41 AM CET on February 02, 2015 (GMT +0100)
Bromma | Change Station
CLOSE
Current Station
Airport
Location: Stockholm Bromma,
Elevation: 46 ft
Nearby Weather Stations

Elev 46 ft 59.37 °N, 17.90 °E | Updated 21 minutes ago

Light Snow
Light Snow
25 °F
Feels Like 15 °F
N
10
Wind Variable Wind from West

Today
High -- | Low -- °F
--% Chance of Precip.
Yesterday
High -- | Low -- °F
Precip. -- in
7:56 AM 4:07 PM
Waxing Gibbous, 97% visible
Pressure 29.00 in
Visibility 6.2 miles
Clouds Overcast 1100 ft
Windchill 15 °F
Dew Point 23 °F
Humidity 93%
Rainfall 0.00 in
Snow Depth Not available.
UV 0 out of 12
Pollen Not available.
Air Quality Not available.
Flu Activity Not available.
METAR ESSB 020220Z AUTO 28009KT 9999 -SN OVC011/// M04/M05 Q0982

More Conditions Fewer Conditions

Pressure 29.00 in
Visibility 6.2 miles
Clouds Overcast 1100 ft
Windchill 15 °F
Dew Point 23 °F
Humidity 93%
Rainfall 0.00 in
Snow Depth Not available.
UV 0 out of 12
Pollen Not available.
Air Quality Not available.
Flu Activity Not available.
METAR ESSB 020220Z AUTO 28009KT 9999 -SN OVC011/// M04/M05 Q0982

More Conditions Fewer Conditions

10-Day Weather Forecast

Almanac

Astronomy

Feb. 02, 2015 Rise Set
Actual Time
Civil Twilight
Nautical Twilight
Astronomical Twilight
Moon
Length of Visible Light
Length of Day
Tomorrow will be .
, % of the Moon is Illuminated

Today's Extremes

Country Highs Country Lows

Community

WunderPhotos

Upload Photos

1,792,659 photos uploaded!

WunderBlogs® & News

Nearby

Air Quality

  Air Quality AQ Index Pollutant
Not available.

Snow Depth

Station Depth Elevation

Earthquake Activity

City Distance Mag. Time & Date
Minimum magnitude displayed is 2.5.

Coastal Water Temperatures

Place Temperature

Nearby Weather Stations